M I D A S
Marine Information and Data Acquisition System
Tripno 906 of the Zeeleeuw from 2005-05-27 06:47:20 to 2005-05-27 12:54:50
Back to CruiseResearch ActivitiesStationsMapUnderway DataData graphs

EquipmentUnitsComments
TimeDGPSUTC
LatitudeDGPSDM.mWGS84
LongitudeDGPSDM.mWGS84
SpeedMeteo Stationm/sRelative wind speed
DirectionMeteo StationdegRelative wind direction
TemperatureMeteo Stationdeg CelciusAir temperature
PressureMeteo StationPaAtmospheric pressure
HumidityMeteo Station%Relative humidity
Missing or incorrect values are displayed as -999
Metereological data collected by the RV Zeeleeuw from 2005-05-27 06:38:38 to 2005-05-27 13:02:10
Time Latitude Longitude Speed Direction Temperature Pressure Humidity
2005-05-27 06:39 51°13.603 2°56.079 2.2 338 18.8 101520 62
2005-05-27 06:40 51°13.627 2°55.981 1.6 339 18.7 101510 62
2005-05-27 06:41 51°13.675 2°55.863 1.2 302 18.8 101520 62
2005-05-27 06:42 51°13.741 2°55.74 0.4 296 19 101520 62
2005-05-27 06:43 51°13.81 2°55.67 2.9 319 19.2 101510 62
2005-05-27 06:44 51°13.853 2°55.644 1.4 316 19.3 101500 61
2005-05-27 06:45 51°13.925 2°55.632 2.6 258 19.4 101500 60
2005-05-27 06:46 51°13.929 2°55.593 2.5 254 19.4 101500 61
2005-05-27 06:47 51°13.928 2°55.592 2.6 229 19.2 101500 61
2005-05-27 06:48 51°13.995 2°55.511 2.7 88 19.2 101500 61
2005-05-27 06:49 51°14.124 2°55.415 3.4 73 19.1 101490 62
2005-05-27 06:50 51°14.263 2°55.28 2.1 31 19 101490 63
2005-05-27 06:51 51°14.373 2°55.065 1.4 25 18.8 101490 64
2005-05-27 06:52 51°14.443 2°54.789 2.2 347 18.7 101490 65
2005-05-27 06:53 51°14.454 2°54.438 3.9 321 18.7 101490 65
2005-05-27 06:54 51°14.396 2°54.07 6.3 318 18.7 101480 64
2005-05-27 06:55 51°14.281 2°53.723 6.2 331 18.8 101470 63
2005-05-27 06:56 51°14.153 2°53.392 6.7 322 18.9 101480 62
2005-05-27 06:57 51°14.026 2°53.057 7.2 328 18.9 101480 62
2005-05-27 06:58 51°13.897 2°52.724 6.2 324 19 101480 62
2005-05-27 06:59 51°13.77 2°52.39 6.2 341 19 101480 63
2005-05-27 07:00 51°13.643 2°52.05 6.7 338 19 101480 62
2005-05-27 07:01 51°13.52 2°51.713 6 324 19 101480 63
2005-05-27 07:02 51°13.398 2°51.384 6.6 342 19 101480 63
2005-05-27 07:03 51°13.275 2°51.05 6.4 331 18.9 101480 63
2005-05-27 07:04 51°13.151 2°50.707 6 333 18.9 101470 64
2005-05-27 07:05 51°13.029 2°50.379 6.5 327 18.8 101470 64
2005-05-27 07:06 51°12.906 2°50.043 6.3 330 18.7 101470 64
2005-05-27 07:07 51°12.782 2°49.702 6.1 334 18.7 101470 65
2005-05-27 07:08 51°12.661 2°49.368 5.9 331 18.6 101470 65
2005-05-27 07:09 51°12.539 2°49.031 6.2 330 18.6 101460 67
2005-05-27 07:10 51°12.416 2°48.699 5.7 336 18.5 101460 67
2005-05-27 07:11 51°12.296 2°48.368 5.2 341 18.5 101460 68
2005-05-27 07:12 51°12.173 2°48.033 5.8 338 18.5 101460 69
2005-05-27 07:13 51°12.054 2°47.693 5.4 344 18.5 101460 69
2005-05-27 07:14 51°11.949 2°47.341 5.4 346 18.3 101470 69
2005-05-27 07:15 51°11.841 2°46.99 6.3 334 18.1 101460 70
2005-05-27 07:16 51°11.734 2°46.632 5.6 333 18.1 101460 70
2005-05-27 07:17 51°11.629 2°46.288 5.4 339 18.3 101460 69
2005-05-27 07:18 51°11.54 2°45.919 5.2 341 18.3 101460 69
2005-05-27 07:19 51°11.461 2°45.558 4.9 339 18.4 101460 69
2005-05-27 07:20 51°11.382 2°45.189 5.3 342 18.5 101460 69
2005-05-27 07:21 51°11.309 2°44.815 5 346 18.5 101460 68
2005-05-27 07:22 51°11.24 2°44.436 5.1 344 18.5 101460 68
2005-05-27 07:23 51°11.171 2°44.064 5 343 18.6 101450 69
2005-05-27 07:24 51°11.104 2°43.681 4.7 338 18.6 101460 69
2005-05-27 07:25 51°11.036 2°43.305 4.6 341 18.6 101450 69
2005-05-27 07:26 51°10.969 2°42.935 5.1 342 18.7 101450 68
2005-05-27 07:27 51°10.902 2°42.562 5.1 343 18.7 101460 68
2005-05-27 07:28 51°10.833 2°42.185 5 341 18.7 101460 68
2005-05-27 07:29 51°10.769 2°41.819 5.1 337 18.8 101450 68
2005-05-27 07:30 51°10.702 2°41.445 5.2 334 18.9 101450 68
2005-05-27 07:31 51°10.636 2°41.07 5.3 331 18.9 101450 67
2005-05-27 07:32 51°10.569 2°40.693 5.1 331 19 101450 66
2005-05-27 07:33 51°10.504 2°40.315 5.4 329 19 101450 66
2005-05-27 07:34 51°10.444 2°39.927 5.1 326 19 101450 66
2005-05-27 07:35 51°10.388 2°39.551 5.7 324 19.1 101440 66
2005-05-27 07:36 51°10.329 2°39.163 5.7 325 19.1 101450 65
2005-05-27 07:37 51°10.273 2°38.786 6.1 328 19.1 101440 65
2005-05-27 07:38 51°10.209 2°38.407 6.3 328 19.2 101440 64
2005-05-27 07:39 51°10.141 2°38.025 6.1 327 19.2 101440 64
2005-05-27 07:40 51°10.082 2°37.639 6 331 19.2 101440 64
2005-05-27 07:41 51°10.028 2°37.262 5.6 330 19.2 101440 64
2005-05-27 07:42 51°9.979 2°36.876 5.3 336 19.1 101440 65
2005-05-27 07:43 51°9.945 2°36.487 4.6 355 18.7 101450 67
2005-05-27 07:44 51°9.964 2°36.104 5.4 9 18.2 101440 69
2005-05-27 07:45 51°10.111 2°35.808 7.5 27 18.1 101440 70
2005-05-27 07:46 51°10.31 2°35.675 8.1 28 18 101440 70
2005-05-27 07:47 51°10.515 2°35.757 8.7 25 18 101440 70
2005-05-27 07:48 51°10.692 2°35.925 9.1 22 18.1 101440 69
2005-05-27 07:49 51°10.845 2°36.15 9.6 22 18.3 101430 69
2005-05-27 07:50 51°10.994 2°36.382 9.7 22 18.4 101430 69
2005-05-27 07:51 51°11.145 2°36.609 9.5 22 18.4 101430 69
2005-05-27 07:52 51°11.293 2°36.833 9.5 25 18.5 101430 69
2005-05-27 07:53 51°11.444 2°37.061 9.3 24 18.5 101440 69
2005-05-27 07:54 51°11.602 2°37.275 9.2 24 18.5 101440 69
2005-05-27 07:55 51°11.774 2°37.467 9.1 20 18.3 101440 69
2005-05-27 07:56 51°11.942 2°37.654 9.5 21 17.9 101440 70
2005-05-27 07:57 51°12.114 2°37.834 9.5 23 17.6 101440 72
2005-05-27 07:58 51°12.3 2°37.984 9.4 23 17.5 101440 73
2005-05-27 07:59 51°12.483 2°38.131 9.7 26 17.4 101440 73
2005-05-27 08:00 51°12.671 2°38.28 9.7 26 17.2 101430 74
2005-05-27 08:01 51°12.857 2°38.428 10.1 25 17.2 101430 74
2005-05-27 08:02 51°13.041 2°38.57 10 26 17.2 101430 75
2005-05-27 08:03 51°13.232 2°38.714 9.9 26 17.1 101430 75
2005-05-27 08:04 51°13.416 2°38.85 10 28 17.1 101430 75
2005-05-27 08:05 51°13.608 2°38.997 10.4 28 17.2 101430 75
2005-05-27 08:06 51°13.816 2°39.031 8.7 36 17.3 101430 75
2005-05-27 08:07 51°14.034 2°38.998 8.7 30 17.2 101430 74
2005-05-27 08:08 51°14.238 2°38.846 6.9 41 16.8 101430 76
2005-05-27 08:09 51°14.363 2°38.542 3.1 26 16.4 101430 78
2005-05-27 08:10 51°14.34 2°38.148 3.1 351 16.2 101440 80
2005-05-27 08:11 51°14.253 2°37.779 4 338 16.2 101430 80
2005-05-27 08:12 51°14.14 2°37.432 4.1 333 16.2 101430 81
2005-05-27 08:13 51°14.025 2°37.073 4.1 328 16.3 101430 81
2005-05-27 08:14 51°13.912 2°36.712 4 329 16.4 101420 80
2005-05-27 08:15 51°13.799 2°36.353 4 327 16.5 101420 80
2005-05-27 08:16 51°13.683 2°36.006 4.1 324 16.6 101420 79
2005-05-27 08:17 51°13.573 2°35.641 4 322 16.8 101420 79
2005-05-27 08:18 51°13.466 2°35.283 4.1 319 16.9 101420 78
2005-05-27 08:19 51°13.358 2°34.929 4.4 319 17.1 101410 77
2005-05-27 08:20 51°13.247 2°34.565 4 319 17.2 101410 76
2005-05-27 08:21 51°13.139 2°34.215 4.1 318 17.3 101410 75
2005-05-27 08:22 51°13.027 2°33.862 3.9 319 17.3 101410 75
2005-05-27 08:23 51°12.913 2°33.503 4.5 317 17.3 101400 74
2005-05-27 08:24 51°12.801 2°33.158 4.4 315 17.2 101400 75
2005-05-27 08:25 51°12.684 2°32.805 5 330 17.2 101400 75
2005-05-27 08:26 51°12.568 2°32.46 4.5 315 17.4 101390 75
2005-05-27 08:27 51°12.453 2°32.116 4.1 318 17.4 101400 74
2005-05-27 08:28 51°12.34 2°31.767 3.8 325 17.3 101390 74
2005-05-27 08:29 51°12.223 2°31.409 3.7 328 17.1 101390 74
2005-05-27 08:30 51°12.11 2°31.052 3.4 329 17 101390 75
2005-05-27 08:31 51°12.035 2°30.671 2.8 336 16.8 101390 75
2005-05-27 08:32 51°11.96 2°30.294 2.6 345 16.7 101390 76
2005-05-27 08:33 51°11.893 2°29.904 2.7 344 16.6 101390 77
2005-05-27 08:34 51°11.828 2°29.513 2.7 342 16.5 101390 78
2005-05-27 08:35 51°11.758 2°29.115 3.1 347 16.5 101390 78
2005-05-27 08:36 51°11.677 2°28.727 3 340 16.4 101390 78
2005-05-27 08:37 51°11.588 2°28.339 3.5 350 16.4 101390 79
2005-05-27 08:38 51°11.494 2°27.952 2.7 347 16.4 101390 79
2005-05-27 08:39 51°11.406 2°27.557 3.3 347 16.4 101380 79
2005-05-27 08:40 51°11.318 2°27.167 3.4 338 16.5 101390 79
2005-05-27 08:41 51°11.23 2°26.789 3.4 346 16.5 101380 79
2005-05-27 08:42 51°11.141 2°26.405 3.7 343 16.5 101380 79
2005-05-27 08:43 51°11.053 2°26.019 3.3 345 16.6 101380 78
2005-05-27 08:44 51°11.041 2°25.61 3.2 10 16.6 101380 78
2005-05-27 08:45 51°11.137 2°25.261 5.7 48 16.5 101380 78
2005-05-27 08:46 51°11.336 2°25.241 10 38 16.1 101360 79
2005-05-27 08:47 51°11.502 2°25.415 10 35 16 101360 80
2005-05-27 08:48 51°11.668 2°25.607 10.5 35 16 101350 81
2005-05-27 08:49 51°11.836 2°25.803 10.9 37 16.2 101350 81
2005-05-27 08:50 51°11.999 2°25.998 10.7 38 16.3 101350 79
2005-05-27 08:51 51°12.161 2°26.193 11.3 36 16.2 101350 79
2005-05-27 08:52 51°12.319 2°26.396 11.1 36 16.1 101350 80
2005-05-27 08:53 51°12.474 2°26.595 11.2 39 16.2 101340 80
2005-05-27 08:54 51°12.632 2°26.798 10.9 36 16.3 101350 80
2005-05-27 08:55 51°12.791 2°27.004 11.2 38 16.2 101340 80
2005-05-27 08:56 51°12.948 2°27.207 11.1 37 16.1 101340 81
2005-05-27 08:57 51°13.103 2°27.409 11.1 39 16.1 101340 81
2005-05-27 08:58 51°13.255 2°27.61 11.1 40 16.1 101340 81
2005-05-27 08:59 51°13.411 2°27.816 11.2 38 16 101340 81
2005-05-27 09:00 51°13.567 2°28.021 11.4 39 16 101340 82
2005-05-27 09:01 51°13.719 2°28.223 11.3 39 15.9 101340 82
2005-05-27 09:02 51°13.877 2°28.431 11.4 38 15.9 101340 83
2005-05-27 09:03 51°14.029 2°28.634 11.2 38 16 101340 83
2005-05-27 09:04 51°14.185 2°28.841 11 39 16 101340 83
2005-05-27 09:05 51°14.342 2°29.049 10.7 38 16.1 101340 83
2005-05-27 09:06 51°14.499 2°29.261 10.7 38 16.1 101340 82
2005-05-27 09:07 51°14.657 2°29.471 10.5 38 16 101340 82
2005-05-27 09:08 51°14.811 2°29.674 10.7 37 16 101340 83
2005-05-27 09:09 51°14.969 2°29.882 10.7 38 16 101340 82
2005-05-27 09:10 51°15.125 2°30.087 10.3 36 16 101340 83
2005-05-27 09:11 51°15.28 2°30.292 10.1 37 16 101340 83
2005-05-27 09:12 51°15.434 2°30.495 10.2 37 16 101340 83
2005-05-27 09:13 51°15.589 2°30.7 10.5 35 16 101350 84
2005-05-27 09:14 51°15.743 2°30.902 10.2 37 16 101350 84
2005-05-27 09:15 51°15.898 2°31.1 10.4 35 16.1 101340 84
2005-05-27 09:16 51°16.055 2°31.3 10 38 16.2 101340 83
2005-05-27 09:17 51°16.211 2°31.5 10 37 16.3 101350 83
2005-05-27 09:18 51°16.361 2°31.7 10.3 39 16.3 101340 83
2005-05-27 09:19 51°16.521 2°31.908 10.3 40 16.5 101340 84
2005-05-27 09:20 51°16.673 2°32.109 10 38 16.5 101340 83
2005-05-27 09:21 51°16.83 2°32.313 10 38 16.5 101340 83
2005-05-27 09:22 51°16.986 2°32.513 10 36 16.6 101340 83
2005-05-27 09:23 51°17.141 2°32.715 9.8 35 16.8 101340 83
2005-05-27 09:24 51°17.295 2°32.914 10.1 37 16.9 101340 82
2005-05-27 09:25 51°17.451 2°33.11 9.5 38 16.9 101340 82
2005-05-27 09:26 51°17.601 2°33.322 9.6 38 16.9 101350 81
2005-05-27 09:27 51°17.747 2°33.525 9.6 36 17.1 101340 81
2005-05-27 09:28 51°17.895 2°33.727 9.8 37 17.1 101340 81
2005-05-27 09:29 51°18.038 2°33.924 9.4 39 17.2 101340 80
2005-05-27 09:30 51°18.187 2°34.124 10.1 35 17.2 101350 80
2005-05-27 09:31 51°18.326 2°34.333 9.9 33 17.1 101340 80
2005-05-27 09:32 51°18.44 2°34.577 10.4 32 17.1 101340 81
2005-05-27 09:33 51°18.55 2°34.818 9.9 34 17.2 101340 81
2005-05-27 09:34 51°18.66 2°35.055 10.7 36 17.4 101340 80
2005-05-27 09:35 51°18.772 2°35.297 10.2 39 17.5 101340 80
2005-05-27 09:36 51°18.864 2°35.553 10.8 33 17.5 101330 79
2005-05-27 09:37 51°18.895 2°35.84 11 24 17.6 101330 79
2005-05-27 09:38 51°18.898 2°36.141 11.5 24 17.6 101330 78
2005-05-27 09:39 51°18.904 2°36.438 11.4 26 17.5 101330 79
2005-05-27 09:40 51°18.912 2°36.733 10.8 27 17.5 101330 79
2005-05-27 09:41 51°18.92 2°37.037 11.3 26 17.4 101330 79
2005-05-27 09:42 51°19.027 2°37.244 8.6 43 17.4 101330 80
2005-05-27 09:43 51°19.214 2°37.321 6.8 49 17.2 101340 80
2005-05-27 09:44 51°19.418 2°37.308 6.4 56 17.1 101330 81
2005-05-27 09:45 51°19.62 2°37.322 6.7 53 17.1 101340 81
2005-05-27 09:46 51°19.823 2°37.344 6.9 52 17.2 101340 81
2005-05-27 09:47 51°20.025 2°37.369 7.1 51 17.1 101330 81
2005-05-27 09:48 51°20.229 2°37.398 7.1 52 17.1 101330 81
2005-05-27 09:49 51°20.431 2°37.429 7.1 54 17 101330 81
2005-05-27 09:50 51°20.631 2°37.463 7.4 53 16.9 101330 82
2005-05-27 09:51 51°20.83 2°37.498 7.2 55 16.8 101330 82
2005-05-27 09:52 51°21.029 2°37.534 7.2 54 16.6 101330 82
2005-05-27 09:53 51°21.231 2°37.566 7.1 54 16.5 101330 83
2005-05-27 09:54 51°21.43 2°37.601 7.3 51 16.5 101330 84
2005-05-27 09:55 51°21.633 2°37.637 7.6 47 16.5 101330 84
2005-05-27 09:56 51°21.833 2°37.669 7.7 49 16.4 101320 85
2005-05-27 09:57 51°22.034 2°37.71 8.2 51 16.5 101320 85
2005-05-27 09:58 51°22.235 2°37.762 8.2 48 16.4 101320 84
2005-05-27 09:59 51°22.432 2°37.81 8.1 51 16.5 101320 85
2005-05-27 10:00 51°22.629 2°37.862 8.2 57 16.6 101320 85
2005-05-27 10:01 51°22.823 2°37.916 8.3 58 16.6 101320 85
2005-05-27 10:02 51°23.018 2°37.97 8.4 55 16.7 101310 84
2005-05-27 10:03 51°23.194 2°38.088 10.2 46 16.6 101310 84
2005-05-27 10:04 51°23.356 2°38.249 9.9 41 16.6 101310 84
2005-05-27 10:05 51°23.499 2°38.451 10.9 41 16.4 101310 84
2005-05-27 10:06 51°23.637 2°38.663 10.6 40 16.2 101310 85
2005-05-27 10:07 51°23.77 2°38.871 10.8 42 16.3 101310 85
2005-05-27 10:08 51°23.907 2°39.089 10.8 40 16.2 101310 85
2005-05-27 10:09 51°24.041 2°39.297 11 38 16.2 101300 85
2005-05-27 10:10 51°24.178 2°39.516 10.7 38 16.2 101300 86
2005-05-27 10:11 51°24.313 2°39.727 10.7 42 16.2 101310 86
2005-05-27 10:12 51°24.436 2°39.96 11.3 37 16.2 101300 86
2005-05-27 10:13 51°24.557 2°40.197 11.1 38 16.2 101300 85
2005-05-27 10:14 51°24.677 2°40.431 10.8 38 16.2 101300 85
2005-05-27 10:15 51°24.798 2°40.669 11.2 40 16.3 101310 86
2005-05-27 10:16 51°24.916 2°40.899 11.1 36 16.4 101300 86
2005-05-27 10:17 51°25.038 2°41.136 11.3 42 16.3 101300 85
2005-05-27 10:18 51°25.161 2°41.371 11.1 40 16.4 101300 85
2005-05-27 10:19 51°25.283 2°41.598 11.7 39 16.5 101300 85
2005-05-27 10:20 51°25.405 2°41.825 11.2 40 16.5 101300 84
2005-05-27 10:21 51°25.525 2°42.05 11.4 42 16.5 101290 84
2005-05-27 10:22 51°25.648 2°42.277 11.4 40 16.6 101300 84
2005-05-27 10:23 51°25.771 2°42.503 11 40 16.6 101290 84
2005-05-27 10:24 51°25.89 2°42.734 11.1 41 16.6 101300 83
2005-05-27 10:25 51°25.999 2°42.979 11.4 39 16.7 101290 83
2005-05-27 10:26 51°26.099 2°43.224 11.4 36 16.7 101290 83
2005-05-27 10:27 51°26.188 2°43.481 11.2 33 16.8 101290 82
2005-05-27 10:28 51°26.283 2°43.744 11.2 36 16.8 101290 81
2005-05-27 10:29 51°26.376 2°44.006 11.3 33 16.9 101300 81
2005-05-27 10:30 51°26.469 2°44.266 11.6 33 16.9 101290 81
2005-05-27 10:31 51°26.563 2°44.528 11.8 35 16.8 101290 81
2005-05-27 10:32 51°26.658 2°44.791 11.7 36 16.9 101290 81
2005-05-27 10:33 51°26.752 2°45.054 11.2 36 16.9 101290 81
2005-05-27 10:34 51°26.842 2°45.315 11.6 29 17 101290 80
2005-05-27 10:35 51°26.919 2°45.588 11.8 32 17.1 101280 80
2005-05-27 10:36 51°26.995 2°45.859 11.1 32 17.2 101290 80
2005-05-27 10:37 51°27.071 2°46.127 10.8 31 17.2 101280 79
2005-05-27 10:38 51°27.148 2°46.397 11.2 28 17.3 101280 79
2005-05-27 10:39 51°27.22 2°46.668 10.9 31 17.2 101280 78
2005-05-27 10:40 51°27.294 2°46.94 11.3 29 17.1 101290 79
2005-05-27 10:41 51°27.367 2°47.212 11.3 32 17 101280 79
2005-05-27 10:42 51°27.438 2°47.479 11.3 30 16.9 101290 80
2005-05-27 10:43 51°27.513 2°47.757 10.7 33 16.8 101290 80
2005-05-27 10:44 51°27.585 2°48.023 11.2 31 16.8 101290 80
2005-05-27 10:45 51°27.658 2°48.299 11.5 32 16.8 101290 80
2005-05-27 10:46 51°27.732 2°48.576 10.9 28 16.8 101290 80
2005-05-27 10:47 51°27.806 2°48.845 11.3 31 16.7 101280 81
2005-05-27 10:48 51°27.88 2°49.123 12.1 31 16.7 101280 81
2005-05-27 10:49 51°27.951 2°49.397 11.5 31 16.7 101280 81
2005-05-27 10:50 51°28.023 2°49.674 11.2 35 16.8 101280 81
2005-05-27 10:51 51°28.096 2°49.95 11.4 32 16.8 101280 81
2005-05-27 10:52 51°28.167 2°50.222 11.3 34 16.8 101280 81
2005-05-27 10:53 51°28.239 2°50.499 11 33 16.8 101270 81
2005-05-27 10:54 51°28.311 2°50.78 11.3 33 16.9 101280 81
2005-05-27 10:55 51°28.347 2°51.059 11.9 16 17 101280 80
2005-05-27 10:56 51°28.236 2°51.322 11.6 -999 17.1 101280 80
2005-05-27 10:57 51°28.067 2°51.55 11.8 2 17.2 101280 80
2005-05-27 10:58 51°27.856 2°51.662 10.2 344 17.3 101280 80
2005-05-27 10:59 51°27.633 2°51.512 7 326 17.3 101290 79
2005-05-27 11:00 51°27.48 2°51.178 6.8 328 17.4 101290 79
2005-05-27 11:01 51°27.346 2°50.823 6.2 330 17.5 101290 79
2005-05-27 11:02 51°27.215 2°50.464 6.4 332 17.6 101290 79
2005-05-27 11:03 51°27.084 2°50.1 7 330 17.7 101290 78
2005-05-27 11:04 51°26.954 2°49.741 6.5 330 17.9 101290 78
2005-05-27 11:05 51°26.826 2°49.377 6.6 330 18 101280 78
2005-05-27 11:06 51°26.697 2°49.009 6.7 331 18.2 101280 77
2005-05-27 11:07 51°26.572 2°48.647 6.5 330 18.4 101280 77
2005-05-27 11:08 51°26.448 2°48.281 6.3 331 18.6 101280 76
2005-05-27 11:09 51°26.327 2°47.921 5.8 330 18.8 101280 76
2005-05-27 11:10 51°26.198 2°47.549 6.3 327 18.8 101270 75
2005-05-27 11:11 51°26.079 2°47.196 6.3 329 18.9 101280 75
2005-05-27 11:12 51°25.956 2°46.831 5.9 330 19 101270 75
2005-05-27 11:13 51°25.833 2°46.474 6.4 328 19.1 101270 75
2005-05-27 11:14 51°25.71 2°46.119 7.4 328 19.2 101270 75
2005-05-27 11:15 51°25.542 2°45.839 9.3 338 19.4 101260 74
2005-05-27 11:16 51°25.305 2°45.74 9.5 342 19.4 101250 73
2005-05-27 11:17 51°25.065 2°45.635 9.2 344 19.3 101250 73
2005-05-27 11:18 51°24.837 2°45.529 9.3 346 19.2 101250 74
2005-05-27 11:19 51°24.599 2°45.47 8.9 348 19.2 101250 74
2005-05-27 11:20 51°24.365 2°45.44 8.9 349 19 101250 74
2005-05-27 11:21 51°24.152 2°45.52 10.4 5 18.8 101250 75
2005-05-27 11:22 51°24.033 2°45.759 9.4 20 18.7 101240 76
2005-05-27 11:23 51°24 2°46.067 9.5 27 18.7 101240 76
2005-05-27 11:24 51°24.011 2°46.375 9.9 25 18.9 101250 76
2005-05-27 11:25 51°24.018 2°46.674 9.5 32 19.1 101240 76
2005-05-27 11:26 51°24.018 2°46.992 9.7 33 19.7 101240 74
2005-05-27 11:27 51°24.017 2°47.302 9.6 26 20.4 101240 71
2005-05-27 11:28 51°24.022 2°47.616 9 33 20.2 101250 69
2005-05-27 11:29 51°24.032 2°47.924 8.7 25 20.5 101240 69
2005-05-27 11:30 51°24.042 2°48.229 9.3 23 20.5 101250 68
2005-05-27 11:31 51°24.051 2°48.546 9.5 29 20.4 101240 70
2005-05-27 11:32 51°24.058 2°48.854 8.1 31 20.8 101240 68
2005-05-27 11:33 51°24.066 2°49.167 9.7 24 20.7 101240 67
2005-05-27 11:34 51°24.071 2°49.476 9.3 30 20.5 101240 69
2005-05-27 11:35 51°24.073 2°49.793 10.9 23 20.8 101240 67
2005-05-27 11:36 51°24.075 2°50.1 10 27 20.7 101240 67
2005-05-27 11:37 51°24.078 2°50.414 9.4 30 20.6 101240 68
2005-05-27 11:38 51°24.078 2°50.729 9 26 21 101240 66
2005-05-27 11:39 51°23.993 2°51.002 10.1 359 21.3 101230 65
2005-05-27 11:40 51°23.777 2°51.105 9.3 349 21.4 101240 65
2005-05-27 11:41 51°23.547 2°50.965 8.7 338 21.5 101240 65
2005-05-27 11:42 51°23.359 2°50.707 8.3 343 21.5 101240 65
2005-05-27 11:43 51°23.186 2°50.431 8.2 341 21.5 101240 64
2005-05-27 11:44 51°23.007 2°50.146 9.4 340 21.5 101240 64
2005-05-27 11:45 51°22.832 2°49.86 9.3 340 21.7 101230 63
2005-05-27 11:46 51°22.656 2°49.598 9.4 347 21.9 101230 63
2005-05-27 11:47 51°22.465 2°49.336 9.8 348 22 101230 63
2005-05-27 11:48 51°22.264 2°49.133 9.2 351 22.1 101230 63
2005-05-27 11:49 51°22.05 2°48.958 9.3 346 22.1 101230 64
2005-05-27 11:50 51°21.835 2°48.777 10 357 22 101230 64
2005-05-27 11:51 51°21.617 2°48.598 10.2 356 22.1 101220 62
2005-05-27 11:52 51°21.398 2°48.418 10.5 358 22.2 101220 62
2005-05-27 11:53 51°21.18 2°48.243 10.1 1 22.4 101220 61
2005-05-27 11:54 51°20.964 2°48.069 10.4 356 22.5 101210 60
2005-05-27 11:55 51°20.751 2°47.892 10 354 22.6 101220 62
2005-05-27 11:56 51°20.537 2°47.712 10.7 355 22.4 101210 61
2005-05-27 11:57 51°20.325 2°47.532 11.1 352 22.5 101210 61
2005-05-27 11:58 51°20.114 2°47.352 10.9 352 22.6 101210 61
2005-05-27 11:59 51°19.906 2°47.175 11.8 350 22.7 101200 59
2005-05-27 12:00 51°19.691 2°46.989 12.1 355 22.7 101200 61
2005-05-27 12:01 51°19.484 2°46.803 11.9 355 22.5 101200 59
2005-05-27 12:02 51°19.273 2°46.6 12.7 352 22.4 101200 59
2005-05-27 12:03 51°19.069 2°46.404 12.5 350 22.3 101200 60
2005-05-27 12:04 51°18.862 2°46.207 11.5 350 22.3 101200 60
2005-05-27 12:05 51°18.648 2°46.009 12.4 351 22.2 101190 60
2005-05-27 12:06 51°18.446 2°45.806 13.4 350 22.2 101190 60
2005-05-27 12:07 51°18.24 2°45.6 13.4 350 22.3 101190 59
2005-05-27 12:08 51°18.036 2°45.397 13.9 352 22.5 101180 58
2005-05-27 12:09 51°17.836 2°45.201 13.3 349 22.6 101190 58
2005-05-27 12:10 51°17.628 2°44.996 13.2 352 22.6 101190 58
2005-05-27 12:11 51°17.42 2°44.799 13.5 350 22.7 101180 58
2005-05-27 12:12 51°17.212 2°44.606 13.2 352 22.8 101190 57
2005-05-27 12:13 51°17.004 2°44.411 13.8 347 22.9 101180 56
2005-05-27 12:14 51°16.8 2°44.222 12.3 351 23.1 101180 55
2005-05-27 12:15 51°16.585 2°44.029 12.7 356 23.4 101180 53
2005-05-27 12:16 51°16.364 2°43.909 12.9 359 23.1 101180 54
2005-05-27 12:17 51°16.128 2°43.887 13.7 10 22.9 101180 54
2005-05-27 12:18 51°15.933 2°44.061 12.4 28 23 101180 54
2005-05-27 12:19 51°15.809 2°44.357 11.3 31 23.3 101180 53
2005-05-27 12:20 51°15.697 2°44.658 12.4 31 23.4 101180 53
2005-05-27 12:21 51°15.581 2°44.957 12.2 32 23.4 101180 52
2005-05-27 12:22 51°15.463 2°45.252 11.9 30 23.5 101180 52
2005-05-27 12:23 51°15.343 2°45.546 11.6 30 23.4 101170 53
2005-05-27 12:24 51°15.219 2°45.846 12.6 26 23.2 101180 54
2005-05-27 12:25 51°15.097 2°46.14 14.4 31 23.3 101160 53
2005-05-27 12:26 51°14.974 2°46.426 13.8 32 24.2 101150 51
2005-05-27 12:27 51°14.85 2°46.711 13.9 34 25 101150 48
2005-05-27 12:28 51°14.728 2°47.004 14.3 32 24.9 101150 48
2005-05-27 12:29 51°14.606 2°47.295 13.4 31 24.6 101150 48
2005-05-27 12:30 51°14.486 2°47.579 12.6 35 25 101150 47
2005-05-27 12:31 51°14.403 2°47.889 11.2 46 25.8 101160 45
2005-05-27 12:32 51°14.363 2°48.221 10.5 49 26.2 101160 44
2005-05-27 12:33 51°14.364 2°48.556 9.9 49 26.4 101160 43
2005-05-27 12:34 51°14.408 2°48.886 10.6 56 26 101170 45
2005-05-27 12:35 51°14.447 2°49.215 10.1 57 26.1 101160 44
2005-05-27 12:36 51°14.481 2°49.549 10.3 59 25.9 101150 44
2005-05-27 12:37 51°14.494 2°49.891 11.2 52 26.2 101160 42
2005-05-27 12:38 51°14.512 2°50.23 12.2 51 26.4 101150 40
2005-05-27 12:39 51°14.54 2°50.568 10.6 57 27.2 101150 39
2005-05-27 12:40 51°14.568 2°50.905 9.1 54 27.5 101160 39
2005-05-27 12:41 51°14.599 2°51.246 10.8 49 27.5 101150 40
2005-05-27 12:42 51°14.629 2°51.586 13.2 48 27.3 101150 41
2005-05-27 12:43 51°14.658 2°51.922 12.8 51 27.5 101140 40
2005-05-27 12:44 51°14.685 2°52.266 10.9 46 27.7 101140 40
2005-05-27 12:45 51°14.712 2°52.608 11.7 40 27.8 101150 39
2005-05-27 12:46 51°14.704 2°52.954 11.3 42 28.3 101140 37
2005-05-27 12:47 51°14.689 2°53.302 12.5 36 28.5 101140 36
2005-05-27 12:48 51°14.662 2°53.647 11.9 39 28.4 101130 37
2005-05-27 12:49 51°14.626 2°54.006 13.9 41 28.6 101130 37
2005-05-27 12:50 51°14.574 2°54.311 10.6 38 28.5 101140 37
2005-05-27 12:51 51°14.522 2°54.591 10.4 36 28.8 101140 36
2005-05-27 12:52 51°14.45 2°54.876 12.5 15 29.1 101150 34
2005-05-27 12:53 51°14.35 2°55.105 10.5 15 29.4 101140 34
2005-05-27 12:54 51°14.252 2°55.289 10 20 29.7 101140 34
2005-05-27 12:55 51°14.149 2°55.403 10.7 8 29.6 101130 34
2005-05-27 12:56 51°14.037 2°55.482 9.8 6 29.6 101140 35
2005-05-27 12:57 51°13.918 2°55.566 8.4 1 29.8 101150 35
2005-05-27 12:58 51°13.801 2°55.657 9.9 11 29.9 101140 35
2005-05-27 12:59 51°13.709 2°55.78 7.8 53 30.2 101140 34
2005-05-27 13:00 51°13.663 2°55.892 4.9 40 30.2 101150 35
2005-05-27 13:01 51°13.633 2°55.991 4.4 58 30.4 101140 34